sensor_id;sensor_type;location;lat;lon;timestamp;temperature;humidity
29687;DHT22;16599;47.078;15.536;2022-10-22T00:01:05;9.80;99.90
29687;DHT22;16599;47.078;15.536;2022-10-22T00:03:32;9.70;99.90
29687;DHT22;16599;47.078;15.536;2022-10-22T00:05:59;9.80;99.90
29687;DHT22;16599;47.078;15.536;2022-10-22T00:08:26;9.80;99.90
29687;DHT22;16599;47.078;15.536;2022-10-22T00:10:53;9.80;99.90
29687;DHT22;16599;47.078;15.536;2022-10-22T00:13:21;9.60;99.90
29687;DHT22;16599;47.078;15.536;2022-10-22T00:15:47;9.70;99.90
29687;DHT22;16599;47.078;15.536;2022-10-22T00:18:14;9.70;99.90
29687;DHT22;16599;47.078;15.536;2022-10-22T00:20:41;9.70;99.90
29687;DHT22;16599;47.078;15.536;2022-10-22T00:23:09;9.70;99.90
29687;DHT22;16599;47.078;15.536;2022-10-22T00:25:35;9.70;99.90
29687;DHT22;16599;47.078;15.536;2022-10-22T00:28:02;9.70;99.90
29687;DHT22;16599;47.078;15.536;2022-10-22T00:30:30;9.80;99.90
29687;DHT22;16599;47.078;15.536;2022-10-22T00:32:56;9.80;99.90
29687;DHT22;16599;47.078;15.536;2022-10-22T00:35:23;9.70;99.90
29687;DHT22;16599;47.078;15.536;2022-10-22T00:37:50;9.60;99.90
29687;DHT22;16599;47.078;15.536;2022-10-22T00:40:17;9.70;99.90
29687;DHT22;16599;47.078;15.536;2022-10-22T00:42:43;9.80;99.90
29687;DHT22;16599;47.078;15.536;2022-10-22T00:50:34;9.90;99.90
29687;DHT22;16599;47.078;15.536;2022-10-22T00:52:59;9.90;99.90
29687;DHT22;16599;47.078;15.536;2022-10-22T00:55:27;9.70;99.90
29687;DHT22;16599;47.078;15.536;2022-10-22T00:57:56;9.60;99.90
29687;DHT22;16599;47.078;15.536;2022-10-22T01:00:24;9.60;99.90
29687;DHT22;16599;47.078;15.536;2022-10-22T01:02:53;9.60;99.90
29687;DHT22;16599;47.078;15.536;2022-10-22T01:05:20;9.60;99.90
29687;DHT22;16599;47.078;15.536;2022-10-22T01:07:49;9.70;99.90
29687;DHT22;16599;47.078;15.536;2022-10-22T01:10:45;9.50;99.90
29687;DHT22;16599;47.078;15.536;2022-10-22T01:13:40;9.40;99.90
29687;DHT22;16599;47.078;15.536;2022-10-22T01:16:12;9.50;99.90
29687;DHT22;16599;47.078;15.536;2022-10-22T01:24:46;9.40;99.90
29687;DHT22;16599;47.078;15.536;2022-10-22T01:27:35;9.50;99.90
29687;DHT22;16599;47.078;15.536;2022-10-22T01:30:13;9.50;99.90
29687;DHT22;16599;47.078;15.536;2022-10-22T01:32:49;9.20;99.90
29687;DHT22;16599;47.078;15.536;2022-10-22T01:35:22;9.20;99.90
29687;DHT22;16599;47.078;15.536;2022-10-22T01:37:55;9.00;99.90
29687;DHT22;16599;47.078;15.536;2022-10-22T01:40:23;9.10;99.90
29687;DHT22;16599;47.078;15.536;2022-10-22T01:42:55;9.10;99.90
29687;DHT22;16599;47.078;15.536;2022-10-22T01:45:23;9.00;99.90
29687;DHT22;16599;47.078;15.536;2022-10-22T01:53:31;9.20;99.90
29687;DHT22;16599;47.078;15.536;2022-10-22T02:04:26;8.80;99.90
29687;DHT22;16599;47.078;15.536;2022-10-22T02:06:58;8.60;99.90
29687;DHT22;16599;47.078;15.536;2022-10-22T02:09:28;8.70;99.90
29687;DHT22;16599;47.078;15.536;2022-10-22T02:11:57;8.90;99.90
29687;DHT22;16599;47.078;15.536;2022-10-22T02:14:27;8.80;99.90
29687;DHT22;16599;47.078;15.536;2022-10-22T02:16:55;8.90;99.90
29687;DHT22;16599;47.078;15.536;2022-10-22T02:19:27;8.90;99.90
29687;DHT22;16599;47.078;15.536;2022-10-22T02:21:56;8.50;99.90
29687;DHT22;16599;47.078;15.536;2022-10-22T02:24:23;8.60;99.90
29687;DHT22;16599;47.078;15.536;2022-10-22T02:26:59;8.70;99.90
29687;DHT22;16599;47.078;15.536;2022-10-22T02:29:31;8.80;99.90
29687;DHT22;16599;47.078;15.536;2022-10-22T02:32:02;8.60;99.90
29687;DHT22;16599;47.078;15.536;2022-10-22T02:34:31;8.60;99.90
29687;DHT22;16599;47.078;15.536;2022-10-22T02:37:00;8.60;99.90
29687;DHT22;16599;47.078;15.536;2022-10-22T02:39:28;8.50;99.90
29687;DHT22;16599;47.078;15.536;2022-10-22T02:41:56;8.40;99.90
29687;DHT22;16599;47.078;15.536;2022-10-22T02:44:23;8.50;99.90
29687;DHT22;16599;47.078;15.536;2022-10-22T02:46:50;8.60;99.90
29687;DHT22;16599;47.078;15.536;2022-10-22T02:49:17;8.50;99.90
29687;DHT22;16599;47.078;15.536;2022-10-22T02:51:44;8.40;99.90
29687;DHT22;16599;47.078;15.536;2022-10-22T02:54:11;8.60;99.90
29687;DHT22;16599;47.078;15.536;2022-10-22T02:56:37;8.50;99.90
29687;DHT22;16599;47.078;15.536;2022-10-22T02:59:04;8.40;99.90
29687;DHT22;16599;47.078;15.536;2022-10-22T03:01:31;8.40;99.90
29687;DHT22;16599;47.078;15.536;2022-10-22T03:03:58;8.40;99.90
29687;DHT22;16599;47.078;15.536;2022-10-22T03:06:25;8.40;99.90
29687;DHT22;16599;47.078;15.536;2022-10-22T03:08:52;8.50;99.90
29687;DHT22;16599;47.078;15.536;2022-10-22T03:11:18;8.50;99.90
29687;DHT22;16599;47.078;15.536;2022-10-22T03:13:45;8.30;99.90
29687;DHT22;16599;47.078;15.536;2022-10-22T03:16:12;8.20;99.90
29687;DHT22;16599;47.078;15.536;2022-10-22T03:18:39;8.20;99.90
29687;DHT22;16599;47.078;15.536;2022-10-22T03:24:06;8.40;99.90
29687;DHT22;16599;47.078;15.536;2022-10-22T03:26:34;8.40;99.90
29687;DHT22;16599;47.078;15.536;2022-10-22T03:29:02;8.40;99.90
29687;DHT22;16599;47.078;15.536;2022-10-22T03:31:29;8.50;99.90
29687;DHT22;16599;47.078;15.536;2022-10-22T03:33:56;8.50;99.90
29687;DHT22;16599;47.078;15.536;2022-10-22T03:36:23;8.60;99.90
29687;DHT22;16599;47.078;15.536;2022-10-22T03:38:50;8.70;99.90
29687;DHT22;16599;47.078;15.536;2022-10-22T03:41:16;8.50;99.90
29687;DHT22;16599;47.078;15.536;2022-10-22T03:43:43;8.30;99.90
29687;DHT22;16599;47.078;15.536;2022-10-22T03:46:15;8.50;99.90
29687;DHT22;16599;47.078;15.536;2022-10-22T03:48:42;8.60;99.90
29687;DHT22;16599;47.078;15.536;2022-10-22T03:51:09;8.60;99.90
29687;DHT22;16599;47.078;15.536;2022-10-22T03:53:36;8.40;99.90
29687;DHT22;16599;47.078;15.536;2022-10-22T03:56:10;8.40;99.90
29687;DHT22;16599;47.078;15.536;2022-10-22T03:58:39;8.40;99.90
29687;DHT22;16599;47.078;15.536;2022-10-22T04:01:08;8.50;99.90
29687;DHT22;16599;47.078;15.536;2022-10-22T04:03:36;8.20;99.90
29687;DHT22;16599;47.078;15.536;2022-10-22T04:06:04;8.30;99.90
29687;DHT22;16599;47.078;15.536;2022-10-22T04:08:32;8.40;99.90
29687;DHT22;16599;47.078;15.536;2022-10-22T04:10:59;8.30;99.90
29687;DHT22;16599;47.078;15.536;2022-10-22T04:13:26;8.30;99.90
29687;DHT22;16599;47.078;15.536;2022-10-22T04:15:53;8.00;99.90
29687;DHT22;16599;47.078;15.536;2022-10-22T04:18:21;8.00;99.90
29687;DHT22;16599;47.078;15.536;2022-10-22T04:20:50;8.00;99.90
29687;DHT22;16599;47.078;15.536;2022-10-22T04:23:17;8.00;99.90
29687;DHT22;16599;47.078;15.536;2022-10-22T04:25:44;8.10;99.90
29687;DHT22;16599;47.078;15.536;2022-10-22T04:28:11;8.20;99.90
29687;DHT22;16599;47.078;15.536;2022-10-22T04:30:38;8.00;99.90
29687;DHT22;16599;47.078;15.536;2022-10-22T04:33:04;8.00;99.90
29687;DHT22;16599;47.078;15.536;2022-10-22T04:35:31;8.00;99.90
29687;DHT22;16599;47.078;15.536;2022-10-22T04:37:58;8.10;99.90
29687;DHT22;16599;47.078;15.536;2022-10-22T04:40:25;8.20;99.90
29687;DHT22;16599;47.078;15.536;2022-10-22T04:42:52;7.90;99.90
29687;DHT22;16599;47.078;15.536;2022-10-22T04:45:18;7.90;99.90
29687;DHT22;16599;47.078;15.536;2022-10-22T04:47:45;8.10;99.90
29687;DHT22;16599;47.078;15.536;2022-10-22T04:50:12;7.80;99.90
29687;DHT22;16599;47.078;15.536;2022-10-22T04:52:39;7.60;99.90
29687;DHT22;16599;47.078;15.536;2022-10-22T04:55:06;7.70;99.90
29687;DHT22;16599;47.078;15.536;2022-10-22T04:57:33;7.90;99.90
29687;DHT22;16599;47.078;15.536;2022-10-22T04:59:59;7.80;99.90
29687;DHT22;16599;47.078;15.536;2022-10-22T05:02:26;8.00;99.90
29687;DHT22;16599;47.078;15.536;2022-10-22T05:04:53;8.10;99.90
29687;DHT22;16599;47.078;15.536;2022-10-22T05:07:20;8.20;99.90
29687;DHT22;16599;47.078;15.536;2022-10-22T05:09:47;8.10;99.90
29687;DHT22;16599;47.078;15.536;2022-10-22T05:12:13;7.80;99.90
29687;DHT22;16599;47.078;15.536;2022-10-22T05:14:40;7.80;99.90
29687;DHT22;16599;47.078;15.536;2022-10-22T05:17:10;7.70;99.90
29687;DHT22;16599;47.078;15.536;2022-10-22T05:19:37;7.70;99.90
29687;DHT22;16599;47.078;15.536;2022-10-22T05:22:04;7.60;99.90
29687;DHT22;16599;47.078;15.536;2022-10-22T05:24:32;7.90;99.90
29687;DHT22;16599;47.078;15.536;2022-10-22T05:27:00;7.80;99.90
29687;DHT22;16599;47.078;15.536;2022-10-22T05:29:26;7.90;99.90
29687;DHT22;16599;47.078;15.536;2022-10-22T05:31:53;7.90;99.90
29687;DHT22;16599;47.078;15.536;2022-10-22T05:34:20;8.10;99.90
29687;DHT22;16599;47.078;15.536;2022-10-22T05:36:47;8.20;99.90
29687;DHT22;16599;47.078;15.536;2022-10-22T05:39:14;8.20;99.90
29687;DHT22;16599;47.078;15.536;2022-10-22T05:41:41;8.30;99.90
29687;DHT22;16599;47.078;15.536;2022-10-22T05:44:10;8.30;99.90
29687;DHT22;16599;47.078;15.536;2022-10-22T05:46:38;8.30;99.90
29687;DHT22;16599;47.078;15.536;2022-10-22T05:49:06;8.30;99.90
29687;DHT22;16599;47.078;15.536;2022-10-22T05:51:34;8.10;99.90
29687;DHT22;16599;47.078;15.536;2022-10-22T05:54:04;8.20;99.90
29687;DHT22;16599;47.078;15.536;2022-10-22T05:56:32;8.20;99.90
29687;DHT22;16599;47.078;15.536;2022-10-22T05:59:00;8.20;99.90
29687;DHT22;16599;47.078;15.536;2022-10-22T06:01:33;8.20;99.90
29687;DHT22;16599;47.078;15.536;2022-10-22T06:04:05;8.40;99.90
29687;DHT22;16599;47.078;15.536;2022-10-22T06:06:42;8.40;99.90
29687;DHT22;16599;47.078;15.536;2022-10-22T06:09:17;8.40;99.90
29687;DHT22;16599;47.078;15.536;2022-10-22T06:11:46;8.30;99.90
29687;DHT22;16599;47.078;15.536;2022-10-22T06:14:13;8.40;99.90
29687;DHT22;16599;47.078;15.536;2022-10-22T06:16:40;8.50;99.90
29687;DHT22;16599;47.078;15.536;2022-10-22T06:19:10;8.30;99.90
29687;DHT22;16599;47.078;15.536;2022-10-22T06:21:38;8.30;99.90
29687;DHT22;16599;47.078;15.536;2022-10-22T06:24:05;8.40;99.90
29687;DHT22;16599;47.078;15.536;2022-10-22T06:26:32;8.50;99.90
29687;DHT22;16599;47.078;15.536;2022-10-22T06:28:59;8.70;99.90
29687;DHT22;16599;47.078;15.536;2022-10-22T06:31:27;8.80;99.90
29687;DHT22;16599;47.078;15.536;2022-10-22T06:33:55;8.80;99.90
29687;DHT22;16599;47.078;15.536;2022-10-22T06:36:23;8.90;99.90
29687;DHT22;16599;47.078;15.536;2022-10-22T06:38:54;9.00;99.90
29687;DHT22;16599;47.078;15.536;2022-10-22T06:41:22;9.10;99.90
29687;DHT22;16599;47.078;15.536;2022-10-22T06:43:55;9.10;99.90
29687;DHT22;16599;47.078;15.536;2022-10-22T06:46:24;9.10;99.90
29687;DHT22;16599;47.078;15.536;2022-10-22T06:48:53;9.20;99.90
29687;DHT22;16599;47.078;15.536;2022-10-22T06:51:20;9.20;99.90
29687;DHT22;16599;47.078;15.536;2022-10-22T06:53:48;9.40;99.90
29687;DHT22;16599;47.078;15.536;2022-10-22T06:56:18;9.50;99.90
29687;DHT22;16599;47.078;15.536;2022-10-22T06:58:49;9.50;99.90
29687;DHT22;16599;47.078;15.536;2022-10-22T07:01:19;9.60;99.90
29687;DHT22;16599;47.078;15.536;2022-10-22T07:03:49;9.60;99.90
29687;DHT22;16599;47.078;15.536;2022-10-22T07:06:17;9.80;99.90
29687;DHT22;16599;47.078;15.536;2022-10-22T07:08:44;9.80;99.90
29687;DHT22;16599;47.078;15.536;2022-10-22T07:11:26;9.80;99.90
29687;DHT22;16599;47.078;15.536;2022-10-22T07:13:54;10.00;99.90
29687;DHT22;16599;47.078;15.536;2022-10-22T07:16:21;10.00;99.90
29687;DHT22;16599;47.078;15.536;2022-10-22T07:18:56;10.00;99.90
29687;DHT22;16599;47.078;15.536;2022-10-22T07:21:23;10.10;99.90
29687;DHT22;16599;47.078;15.536;2022-10-22T07:23:51;10.10;99.90
29687;DHT22;16599;47.078;15.536;2022-10-22T07:26:18;10.20;99.90
29687;DHT22;16599;47.078;15.536;2022-10-22T07:28:48;10.20;99.90
29687;DHT22;16599;47.078;15.536;2022-10-22T07:31:15;10.30;99.90
29687;DHT22;16599;47.078;15.536;2022-10-22T07:33:43;10.30;99.90
29687;DHT22;16599;47.078;15.536;2022-10-22T07:36:12;10.50;99.90
29687;DHT22;16599;47.078;15.536;2022-10-22T07:38:48;10.50;99.90
29687;DHT22;16599;47.078;15.536;2022-10-22T07:41:15;10.60;99.90
29687;DHT22;16599;47.078;15.536;2022-10-22T07:43:42;10.60;99.90
29687;DHT22;16599;47.078;15.536;2022-10-22T07:46:10;10.60;99.90
29687;DHT22;16599;47.078;15.536;2022-10-22T07:48:37;10.70;99.90
29687;DHT22;16599;47.078;15.536;2022-10-22T07:51:05;10.80;99.90
29687;DHT22;16599;47.078;15.536;2022-10-22T07:53:32;10.80;99.90
29687;DHT22;16599;47.078;15.536;2022-10-22T07:55:59;10.90;99.90
29687;DHT22;16599;47.078;15.536;2022-10-22T07:58:25;10.90;99.90
29687;DHT22;16599;47.078;15.536;2022-10-22T08:00:57;10.90;99.90
29687;DHT22;16599;47.078;15.536;2022-10-22T08:03:27;10.90;99.90
29687;DHT22;16599;47.078;15.536;2022-10-22T08:05:54;10.90;99.90
29687;DHT22;16599;47.078;15.536;2022-10-22T08:08:21;10.90;99.90
29687;DHT22;16599;47.078;15.536;2022-10-22T08:10:52;10.90;99.90
29687;DHT22;16599;47.078;15.536;2022-10-22T08:13:21;10.90;99.90
29687;DHT22;16599;47.078;15.536;2022-10-22T08:15:48;10.90;99.90
29687;DHT22;16599;47.078;15.536;2022-10-22T08:18:20;10.90;99.90
29687;DHT22;16599;47.078;15.536;2022-10-22T08:20:47;10.90;99.90
29687;DHT22;16599;47.078;15.536;2022-10-22T08:23:14;11.00;99.90
29687;DHT22;16599;47.078;15.536;2022-10-22T08:25:40;11.00;99.90
29687;DHT22;16599;47.078;15.536;2022-10-22T08:28:07;11.00;99.90
29687;DHT22;16599;47.078;15.536;2022-10-22T08:30:35;11.10;99.90
29687;DHT22;16599;47.078;15.536;2022-10-22T08:33:04;11.10;99.90
29687;DHT22;16599;47.078;15.536;2022-10-22T08:35:31;11.10;99.90
29687;DHT22;16599;47.078;15.536;2022-10-22T08:37:58;11.10;99.90
29687;DHT22;16599;47.078;15.536;2022-10-22T08:50:48;11.30;99.90
29687;DHT22;16599;47.078;15.536;2022-10-22T08:53:18;11.40;99.90
29687;DHT22;16599;47.078;15.536;2022-10-22T08:55:46;11.40;99.90
29687;DHT22;16599;47.078;15.536;2022-10-22T09:01:14;11.40;99.90
29687;DHT22;16599;47.078;15.536;2022-10-22T09:06:34;11.70;99.90
29687;DHT22;16599;47.078;15.536;2022-10-22T09:09:17;11.80;99.90
29687;DHT22;16599;47.078;15.536;2022-10-22T09:11:50;11.80;99.90
29687;DHT22;16599;47.078;15.536;2022-10-22T09:14:21;11.90;99.90
29687;DHT22;16599;47.078;15.536;2022-10-22T09:17:24;11.80;99.90
29687;DHT22;16599;47.078;15.536;2022-10-22T09:20:23;11.90;99.90
29687;DHT22;16599;47.078;15.536;2022-10-22T09:23:56;12.00;99.90
29687;DHT22;16599;47.078;15.536;2022-10-22T09:25:51;12.00;99.90
29687;DHT22;16599;47.078;15.536;2022-10-22T09:28:19;12.10;99.90
29687;DHT22;16599;47.078;15.536;2022-10-22T09:30:46;12.10;99.90
29687;DHT22;16599;47.078;15.536;2022-10-22T09:33:24;12.20;99.90
29687;DHT22;16599;47.078;15.536;2022-10-22T09:36:00;12.20;99.90
29687;DHT22;16599;47.078;15.536;2022-10-22T09:38:43;12.40;99.90
29687;DHT22;16599;47.078;15.536;2022-10-22T09:41:10;12.40;99.90
29687;DHT22;16599;47.078;15.536;2022-10-22T09:43:38;12.40;99.90
29687;DHT22;16599;47.078;15.536;2022-10-22T09:46:07;12.50;99.90
29687;DHT22;16599;47.078;15.536;2022-10-22T09:48:42;12.50;99.90
29687;DHT22;16599;47.078;15.536;2022-10-22T09:51:24;12.50;99.90
29687;DHT22;16599;47.078;15.536;2022-10-22T09:54:10;12.60;99.90
29687;DHT22;16599;47.078;15.536;2022-10-22T09:56:39;12.70;99.90
29687;DHT22;16599;47.078;15.536;2022-10-22T09:59:15;12.80;99.90
29687;DHT22;16599;47.078;15.536;2022-10-22T10:01:42;12.70;99.90
29687;DHT22;16599;47.078;15.536;2022-10-22T10:04:12;12.70;99.90
29687;DHT22;16599;47.078;15.536;2022-10-22T10:06:41;12.80;99.90
29687;DHT22;16599;47.078;15.536;2022-10-22T10:09:23;12.90;99.90
29687;DHT22;16599;47.078;15.536;2022-10-22T10:14:52;13.00;99.90
29687;DHT22;16599;47.078;15.536;2022-10-22T10:17:40;13.00;99.90
29687;DHT22;16599;47.078;15.536;2022-10-22T10:26:06;13.00;99.90
29687;DHT22;16599;47.078;15.536;2022-10-22T10:28:47;13.00;99.90
29687;DHT22;16599;47.078;15.536;2022-10-22T10:39:25;13.20;99.90
29687;DHT22;16599;47.078;15.536;2022-10-22T10:42:28;13.10;99.90
29687;DHT22;16599;47.078;15.536;2022-10-22T10:45:19;13.20;99.90
29687;DHT22;16599;47.078;15.536;2022-10-22T11:13:57;13.40;99.90
29687;DHT22;16599;47.078;15.536;2022-10-22T11:16:36;13.40;99.90
29687;DHT22;16599;47.078;15.536;2022-10-22T11:22:32;13.50;99.90
29687;DHT22;16599;47.078;15.536;2022-10-22T11:25:12;13.50;99.90
29687;DHT22;16599;47.078;15.536;2022-10-22T11:27:55;13.60;99.90
29687;DHT22;16599;47.078;15.536;2022-10-22T11:30:34;13.70;99.90
29687;DHT22;16599;47.078;15.536;2022-10-22T11:33:14;13.70;99.90
29687;DHT22;16599;47.078;15.536;2022-10-22T11:35:43;13.90;99.90
29687;DHT22;16599;47.078;15.536;2022-10-22T11:38:24;13.90;99.90
29687;DHT22;16599;47.078;15.536;2022-10-22T11:41:12;13.80;99.90
29687;DHT22;16599;47.078;15.536;2022-10-22T11:51:42;14.00;99.90
29687;DHT22;16599;47.078;15.536;2022-10-22T11:54:27;14.00;99.90
29687;DHT22;16599;47.078;15.536;2022-10-22T11:59:49;14.10;99.90
29687;DHT22;16599;47.078;15.536;2022-10-22T12:02:41;14.10;99.90
29687;DHT22;16599;47.078;15.536;2022-10-22T12:08:17;14.10;99.90
29687;DHT22;16599;47.078;15.536;2022-10-22T12:11:05;14.10;99.90
29687;DHT22;16599;47.078;15.536;2022-10-22T12:16:47;14.00;99.90
29687;DHT22;16599;47.078;15.536;2022-10-22T12:21:58;14.10;99.90
29687;DHT22;16599;47.078;15.536;2022-10-22T12:24:31;14.00;99.90
29687;DHT22;16599;47.078;15.536;2022-10-22T12:26:59;14.00;99.90
29687;DHT22;16599;47.078;15.536;2022-10-22T12:29:26;14.10;99.90
29687;DHT22;16599;47.078;15.536;2022-10-22T12:31:56;14.10;99.90
29687;DHT22;16599;47.078;15.536;2022-10-22T12:34:27;14.00;99.90
29687;DHT22;16599;47.078;15.536;2022-10-22T12:36:55;14.00;99.90
29687;DHT22;16599;47.078;15.536;2022-10-22T12:39:25;14.00;99.90
29687;DHT22;16599;47.078;15.536;2022-10-22T12:41:53;14.00;99.90
29687;DHT22;16599;47.078;15.536;2022-10-22T12:44:20;13.90;99.90
29687;DHT22;16599;47.078;15.536;2022-10-22T12:46:48;13.80;99.90
29687;DHT22;16599;47.078;15.536;2022-10-22T12:49:24;13.80;99.90
29687;DHT22;16599;47.078;15.536;2022-10-22T12:51:54;13.80;99.90
29687;DHT22;16599;47.078;15.536;2022-10-22T12:54:26;13.80;99.90
29687;DHT22;16599;47.078;15.536;2022-10-22T12:56:55;13.80;99.90
29687;DHT22;16599;47.078;15.536;2022-10-22T12:59:28;13.80;99.90
29687;DHT22;16599;47.078;15.536;2022-10-22T13:01:55;13.80;99.90
29687;DHT22;16599;47.078;15.536;2022-10-22T13:12:10;13.80;99.90
29687;DHT22;16599;47.078;15.536;2022-10-22T13:14:43;13.80;99.90
29687;DHT22;16599;47.078;15.536;2022-10-22T13:17:12;13.80;99.90
29687;DHT22;16599;47.078;15.536;2022-10-22T13:22:33;13.80;99.90
29687;DHT22;16599;47.078;15.536;2022-10-22T13:27:59;13.70;99.90
29687;DHT22;16599;47.078;15.536;2022-10-22T13:32:56;13.70;99.90
29687;DHT22;16599;47.078;15.536;2022-10-22T13:35:26;13.80;99.90
29687;DHT22;16599;47.078;15.536;2022-10-22T13:37:53;13.70;99.90
29687;DHT22;16599;47.078;15.536;2022-10-22T13:40:20;13.80;99.90
29687;DHT22;16599;47.078;15.536;2022-10-22T13:42:47;13.70;99.90
29687;DHT22;16599;47.078;15.536;2022-10-22T13:45:14;13.70;99.90
29687;DHT22;16599;47.078;15.536;2022-10-22T13:47:45;13.70;99.90
29687;DHT22;16599;47.078;15.536;2022-10-22T13:50:15;13.70;99.90
29687;DHT22;16599;47.078;15.536;2022-10-22T13:52:45;13.70;99.90
29687;DHT22;16599;47.078;15.536;2022-10-22T13:58:02;13.70;99.90
29687;DHT22;16599;47.078;15.536;2022-10-22T14:00:32;13.70;99.90
29687;DHT22;16599;47.078;15.536;2022-10-22T14:02:59;13.60;99.90
29687;DHT22;16599;47.078;15.536;2022-10-22T14:05:26;13.60;99.90
29687;DHT22;16599;47.078;15.536;2022-10-22T14:07:53;13.60;99.90
29687;DHT22;16599;47.078;15.536;2022-10-22T14:10:22;13.60;99.90
29687;DHT22;16599;47.078;15.536;2022-10-22T14:12:50;13.60;99.90
29687;DHT22;16599;47.078;15.536;2022-10-22T14:15:23;13.50;99.90
29687;DHT22;16599;47.078;15.536;2022-10-22T14:17:56;13.50;99.90
29687;DHT22;16599;47.078;15.536;2022-10-22T14:20:29;13.50;99.90
29687;DHT22;16599;47.078;15.536;2022-10-22T14:23:02;13.50;99.90
29687;DHT22;16599;47.078;15.536;2022-10-22T14:25:31;13.50;99.90
29687;DHT22;16599;47.078;15.536;2022-10-22T14:27:58;13.50;99.90
29687;DHT22;16599;47.078;15.536;2022-10-22T14:30:25;13.40;99.90
29687;DHT22;16599;47.078;15.536;2022-10-22T14:32:52;13.40;99.90
29687;DHT22;16599;47.078;15.536;2022-10-22T14:35:21;13.40;99.90
29687;DHT22;16599;47.078;15.536;2022-10-22T14:37:48;13.40;99.90
29687;DHT22;16599;47.078;15.536;2022-10-22T14:40:18;13.40;99.90
29687;DHT22;16599;47.078;15.536;2022-10-22T14:42:47;13.40;99.90
29687;DHT22;16599;47.078;15.536;2022-10-22T14:45:20;13.40;99.90
29687;DHT22;16599;47.078;15.536;2022-10-22T14:47:48;13.40;99.90
29687;DHT22;16599;47.078;15.536;2022-10-22T14:50:16;13.40;99.90
29687;DHT22;16599;47.078;15.536;2022-10-22T14:52:43;13.40;99.90
29687;DHT22;16599;47.078;15.536;2022-10-22T14:55:12;13.40;99.90
29687;DHT22;16599;47.078;15.536;2022-10-22T14:57:39;13.40;99.90
29687;DHT22;16599;47.078;15.536;2022-10-22T15:00:15;13.40;99.90
29687;DHT22;16599;47.078;15.536;2022-10-22T15:02:43;13.40;99.90
29687;DHT22;16599;47.078;15.536;2022-10-22T15:05:10;13.30;99.90
29687;DHT22;16599;47.078;15.536;2022-10-22T15:07:38;13.30;99.90
29687;DHT22;16599;47.078;15.536;2022-10-22T15:10:07;13.30;99.90
29687;DHT22;16599;47.078;15.536;2022-10-22T15:12:35;13.30;99.90
29687;DHT22;16599;47.078;15.536;2022-10-22T15:15:02;13.30;99.90
29687;DHT22;16599;47.078;15.536;2022-10-22T15:17:29;13.30;99.90
29687;DHT22;16599;47.078;15.536;2022-10-22T15:19:55;13.40;99.90
29687;DHT22;16599;47.078;15.536;2022-10-22T15:22:25;13.40;99.90
29687;DHT22;16599;47.078;15.536;2022-10-22T15:24:52;13.40;99.90
29687;DHT22;16599;47.078;15.536;2022-10-22T15:27:19;13.40;99.90
29687;DHT22;16599;47.078;15.536;2022-10-22T15:29:46;13.30;99.90
29687;DHT22;16599;47.078;15.536;2022-10-22T15:32:13;13.30;99.90
29687;DHT22;16599;47.078;15.536;2022-10-22T15:34:39;13.30;99.90
29687;DHT22;16599;47.078;15.536;2022-10-22T15:37:10;13.30;99.90
29687;DHT22;16599;47.078;15.536;2022-10-22T15:39:41;13.30;99.90
29687;DHT22;16599;47.078;15.536;2022-10-22T15:42:08;13.30;99.90
29687;DHT22;16599;47.078;15.536;2022-10-22T15:44:35;13.40;99.90
29687;DHT22;16599;47.078;15.536;2022-10-22T15:47:03;13.40;99.90
29687;DHT22;16599;47.078;15.536;2022-10-22T15:49:34;13.40;99.90
29687;DHT22;16599;47.078;15.536;2022-10-22T15:52:03;13.40;99.90
29687;DHT22;16599;47.078;15.536;2022-10-22T15:54:30;13.30;99.90
29687;DHT22;16599;47.078;15.536;2022-10-22T15:56:59;13.40;99.90
29687;DHT22;16599;47.078;15.536;2022-10-22T15:59:27;13.30;99.90
29687;DHT22;16599;47.078;15.536;2022-10-22T16:01:54;13.40;99.90
29687;DHT22;16599;47.078;15.536;2022-10-22T16:04:20;13.40;99.90
29687;DHT22;16599;47.078;15.536;2022-10-22T16:06:49;13.40;99.90
29687;DHT22;16599;47.078;15.536;2022-10-22T16:09:21;13.40;99.90
29687;DHT22;16599;47.078;15.536;2022-10-22T16:11:49;13.40;99.90
29687;DHT22;16599;47.078;15.536;2022-10-22T16:14:17;13.30;99.90
29687;DHT22;16599;47.078;15.536;2022-10-22T16:16:47;13.30;99.90
29687;DHT22;16599;47.078;15.536;2022-10-22T16:19:16;13.30;99.90
29687;DHT22;16599;47.078;15.536;2022-10-22T16:21:43;13.30;99.90
29687;DHT22;16599;47.078;15.536;2022-10-22T16:24:10;13.30;99.90
29687;DHT22;16599;47.078;15.536;2022-10-22T16:26:38;13.20;99.90
29687;DHT22;16599;47.078;15.536;2022-10-22T16:29:05;13.20;99.90
29687;DHT22;16599;47.078;15.536;2022-10-22T16:31:33;13.10;99.90
29687;DHT22;16599;47.078;15.536;2022-10-22T16:34:00;13.10;99.90
29687;DHT22;16599;47.078;15.536;2022-10-22T16:36:27;13.00;99.90
29687;DHT22;16599;47.078;15.536;2022-10-22T16:38:54;12.90;99.90
29687;DHT22;16599;47.078;15.536;2022-10-22T16:41:23;12.80;99.90
29687;DHT22;16599;47.078;15.536;2022-10-22T16:43:53;12.80;99.90
29687;DHT22;16599;47.078;15.536;2022-10-22T16:46:21;12.80;99.90
29687;DHT22;16599;47.078;15.536;2022-10-22T16:48:50;12.80;99.90
29687;DHT22;16599;47.078;15.536;2022-10-22T16:51:20;12.80;99.90
29687;DHT22;16599;47.078;15.536;2022-10-22T16:53:47;12.70;99.90
29687;DHT22;16599;47.078;15.536;2022-10-22T16:56:16;12.60;99.90
29687;DHT22;16599;47.078;15.536;2022-10-22T16:58:56;12.70;99.90
29687;DHT22;16599;47.078;15.536;2022-10-22T17:01:25;12.70;99.90
29687;DHT22;16599;47.078;15.536;2022-10-22T17:03:52;12.70;99.90
29687;DHT22;16599;47.078;15.536;2022-10-22T17:06:23;12.70;99.90
29687;DHT22;16599;47.078;15.536;2022-10-22T17:08:50;12.70;99.90
29687;DHT22;16599;47.078;15.536;2022-10-22T17:11:21;12.70;99.90
29687;DHT22;16599;47.078;15.536;2022-10-22T17:13:50;12.70;99.90
29687;DHT22;16599;47.078;15.536;2022-10-22T17:16:20;12.70;99.90
29687;DHT22;16599;47.078;15.536;2022-10-22T17:18:47;12.70;99.90
29687;DHT22;16599;47.078;15.536;2022-10-22T17:21:15;12.70;99.90
29687;DHT22;16599;47.078;15.536;2022-10-22T17:23:42;12.70;99.90
29687;DHT22;16599;47.078;15.536;2022-10-22T17:26:15;12.60;99.90
29687;DHT22;16599;47.078;15.536;2022-10-22T17:28:42;12.50;99.90
29687;DHT22;16599;47.078;15.536;2022-10-22T17:31:15;12.30;99.90
29687;DHT22;16599;47.078;15.536;2022-10-22T17:33:43;12.40;99.90
29687;DHT22;16599;47.078;15.536;2022-10-22T17:36:10;12.40;99.90
29687;DHT22;16599;47.078;15.536;2022-10-22T17:38:40;12.40;99.90
29687;DHT22;16599;47.078;15.536;2022-10-22T17:41:08;12.40;99.90
29687;DHT22;16599;47.078;15.536;2022-10-22T17:43:40;12.40;99.90
29687;DHT22;16599;47.078;15.536;2022-10-22T17:46:09;12.40;99.90
29687;DHT22;16599;47.078;15.536;2022-10-22T17:48:36;12.30;99.90